This is the latest recevied weather packets stored in our database for station/object WB0RXX. If no packets are shown the sender has not sent any weather packets the latest 1 day(s).
| Time | Temp. | Humidity | Pressure | Rain* | Wind** | Luminosity | Snow |
|---|---|---|---|---|---|---|---|
| 1778003403 | 9.44° C | 40% | 1012.4 hPa | 0 mm | 1.34 m/s, 302° | - | - |
| 1778002803 | 9.44° C | 40% | 1012.5 hPa | 0 mm | 1.79 m/s, 333° | - | - |
| 1778002219 | 9.44° C | 42% | 1012.6 hPa | 0 mm | 0.45 m/s, 320° | - | - |
| 1778001604 | 10° C | 40% | 1012.5 hPa | 0 mm | 2.68 m/s, 345° | - | - |
| 1778001004 | 8.89° C | 42% | 1012.6 hPa | 0 mm | 1.79 m/s, 270° | - | - |
| 1778000404 | 9.44° C | 41% | 1012.5 hPa | 0 mm | 2.68 m/s, 312° | - | - |
| 1777999804 | 8.89° C | 42% | 1012.4 hPa | 0 mm | 1.34 m/s, 355° | - | - |
| 1777999203 | 9.44° C | 43% | 1012.3 hPa | 0 mm | 1.79 m/s, 291° | - | - |
| 1777998604 | 8.33° C | 44% | 1012.4 hPa | 0 mm | 1.34 m/s, 281° | - | - |
| 1777998004 | 8.89° C | 44% | 1012.3 hPa | 0 mm | 2.24 m/s, 309° | - | - |
| 1777997404 | 8.89° C | 45% | 1012.2 hPa | 0 mm | 0.89 m/s, 299° | - | - |
| 1777996804 | 8.89° C | 44% | 1012.2 hPa | 0 mm | 1.79 m/s, 333° | - | - |
| 1777996204 | 8.89° C | 46% | 1012.3 hPa | 0 mm | 1.34 m/s, 304° | - | - |
| 1777995604 | 8.33° C | 46% | 1012.4 hPa | 0 mm | 2.68 m/s, 336° | - | - |
| 1777995004 | 8.33° C | 49% | 1012.2 hPa | 0 mm | 1.34 m/s, 338° | - | - |
| 1777994403 | 8.89° C | 48% | 1012.2 hPa | 0 mm | 1.34 m/s, 295° | - | - |
| 1777993804 | 7.78° C | 48% | 1012.2 hPa | 0 mm | 2.24 m/s, 314° | - | - |
| 1777993220 | 7.78° C | 53% | 1012.2 hPa | 0 mm | 1.34 m/s, 300° | - | - |
| 1777992619 | 7.78° C | 55% | 1012.2 hPa | 0 mm | 1.79 m/s, 292° | - | - |
| 1777992003 | 7.22° C | 56% | 1012.2 hPa | 0 mm | 1.34 m/s, 307° | - | - |
| 1777991403 | 6.67° C | 60% | 1012.2 hPa | 0 mm | 1.79 m/s, 334° | - | - |
| 1777990804 | 6.11° C | 67% | 1012 hPa | 0 mm | 1.79 m/s, 348° | - | - |
| 1777990219 | 6.11° C | 68% | 1012.1 hPa | 0 mm | 0 m/s | - | - |
| 1777989604 | 5.56° C | 69% | 1012 hPa | 0 mm | 0.89 m/s, 330° | - | - |
| 1777989002 | 5° C | 72% | 1011.9 hPa | 0 mm | 0.45 m/s, 281° | - | - |
* Rain latest hour (hover to see other rain measurements)
** Current wind speed in m/s (hover to see current wind gust speed)